Observations for BIRMINGHAM AIRPORT, United Kingdom (EGBB)

EGBB 231050Z 17005KT 9999 BKN010 14/13 Q1015
EGBB 231020Z 17005KT 9999 SCT009 SCT020 13/12 Q1015 
EGBB 230950Z 19008KT 160V220 9999 SCT009 SCT022 13/12 Q1015 
EGBB 230920Z 19006KT 9999 SCT009 SCT024 12/12 Q1015 
EGBB 230850Z 18006KT 9999 -SHRA BKN008 12/11 Q1015  
EGBB 230820Z 17005KT 9999 BKN006 11/11 Q1015
EGBB 230750Z 17005KT 9999 BKN006 11/11 Q1015
EGBB 230720Z 18005KT 9999 -SHRA BKN008 11/11 Q1015  
EGBB 230650Z 16005KT 9999 VCSH BKN008 11/10 Q1015   
EGBB 230620Z 17004KT 140V200 9999 VCSH BKN008 11/11 Q1015   
EGBB 230550Z 17005KT 9999 VCSH BKN007 11/10 Q1015   
EGBB 230520Z 17005KT 6000 -RA BKN007 11/10 Q1016
EGBB 230450Z 16004KT 9999 -RA FEW024 10/09 Q1016
EGBB 230420Z 18005KT 9999 -RA FEW033 SCT039 10/09 Q1016 
EGBB 230350Z 20004KT 170V240 9999 SCT043 10/09 Q1016
EGBB 230320Z 20004KT 170V230 CAVOK 10/08 Q1015  
EGBB 230250Z 22006KT 190V260 9999 SCT044 11/08 Q1016
EGBB 230220Z VRB03KT 9999 FEW045 10/08 Q1016
EGBB 230150Z VRB02KT 9999 BKN043 10/08 Q1017
EGBB 230120Z VRB03KT 9999 FEW044 10/08 Q1016
EGBB 230050Z 22004KT 170V270 9999 FEW036 10/08 Q1016
EGBB 230020Z 18004KT 150V210 9999 FEW049 10/07 Q1016
EGBB 222350Z 24006KT 210V270 CAVOK 11/08 Q1016  
EGBB 222320Z 24006KT 210V280 CAVOK 11/08 Q1016  
EGBB 222250Z 21004KT 170V250 CAVOK 10/08 Q1016  
EGBB 222220Z 23004KT 180V280 CAVOK 10/08 Q1016  
EGBB 222150Z 22004KT 180V260 9999 SCT041 10/08 Q1017
EGBB 222120Z 25004KT 9999 SCT032 BKN039 11/08 Q1017 
EGBB 222050Z 25004KT 180V280 9999 SCT032 10/07 Q1016
EGBB 222020Z 25005KT 200V280 9999 SCT033 10/07 Q1016
EGBB 221950Z VRB03KT 9999 BKN037 10/07 Q1016
EGBB 221920Z VRB02KT 9999 BKN038 10/07 Q1016
EGBB 221850Z 25005KT 200V290 9999 FEW043 10/06 Q1016
EGBB 221820Z 27007KT 9999 FEW035 SCT043 11/06 Q1016 
EGBB 221750Z 29007KT 9999 FEW033 SCT038 11/06 Q1015 
EGBB 221720Z 27007KT 230V300 9999 FEW033 11/06 Q1015
EGBB 221650Z 27008KT 9999 FEW030 SCT042 12/06 Q1014 
EGBB 221620Z 30011KT 9999 SCT033 12/05 Q1014
EGBB 221550Z 30011KT 9999 SCT034 12/05 Q1014
EGBB 221520Z 28013G23KT 260V320 9999 BKN034 12/05 Q1013 
EGBB 221450Z 29013KT 9999 VCSH SCT033 13/06 Q1013   
EGBB 221420Z 29014KT 9999 VCSH BKN040 13/05 Q1013   
EGBB 221350Z 28013KT 9999 BKN036 12/05 Q1013
EGBB 221320Z 29014KT 9999 BKN041 12/04 Q1013
EGBB 221250Z 29013KT 9999 SCT046 12/03 Q1012
EGBB 221220Z 29014KT 9999 SCT041 12/03 Q1012
EGBB 221150Z 28014KT 250V310 9999 SCT042 12/03 Q1012
EGBB 221120Z 30012G23KT 9999 BKN040 12/03 Q1012 
EGBB 221050Z 28012KT 9999 SCT038 11/03 Q1012